sensor_id;sensor_type;location;lat;lon;timestamp;P1;durP1;ratioP1;P2;durP2;ratioP2
19830;SDS011;10076;52.008;4.708;2023-10-09T00:01:24;35.13;;;31.45;;
19830;SDS011;10076;52.008;4.708;2023-10-09T00:03:51;34.63;;;31.42;;
19830;SDS011;10076;52.008;4.708;2023-10-09T00:06:19;33.67;;;30.35;;
19830;SDS011;10076;52.008;4.708;2023-10-09T00:08:55;34.53;;;31.13;;
19830;SDS011;10076;52.008;4.708;2023-10-09T00:11:23;34.55;;;31.05;;
19830;SDS011;10076;52.008;4.708;2023-10-09T00:13:54;34.88;;;31.23;;
19830;SDS011;10076;52.008;4.708;2023-10-09T00:16:23;33.60;;;30.52;;
19830;SDS011;10076;52.008;4.708;2023-10-09T00:19:03;35.00;;;31.58;;
19830;SDS011;10076;52.008;4.708;2023-10-09T00:21:42;34.03;;;30.67;;
19830;SDS011;10076;52.008;4.708;2023-10-09T00:24:08;32.83;;;29.80;;
19830;SDS011;10076;52.008;4.708;2023-10-09T00:26:45;33.08;;;29.98;;
19830;SDS011;10076;52.008;4.708;2023-10-09T00:29:11;32.67;;;29.75;;
19830;SDS011;10076;52.008;4.708;2023-10-09T00:31:54;33.42;;;30.23;;
19830;SDS011;10076;52.008;4.708;2023-10-09T00:34:28;33.25;;;30.25;;
19830;SDS011;10076;52.008;4.708;2023-10-09T00:36:53;34.25;;;31.17;;
19830;SDS011;10076;52.008;4.708;2023-10-09T00:39:19;34.45;;;31.45;;
19830;SDS011;10076;52.008;4.708;2023-10-09T00:42:01;33.85;;;30.75;;
19830;SDS011;10076;52.008;4.708;2023-10-09T00:44:27;34.15;;;31.23;;
19830;SDS011;10076;52.008;4.708;2023-10-09T00:47:04;34.08;;;31.08;;
19830;SDS011;10076;52.008;4.708;2023-10-09T00:49:45;33.95;;;30.73;;
19830;SDS011;10076;52.008;4.708;2023-10-09T00:52:11;32.85;;;30.02;;
19830;SDS011;10076;52.008;4.708;2023-10-09T00:54:43;33.63;;;30.77;;
19830;SDS011;10076;52.008;4.708;2023-10-09T00:57:15;32.85;;;30.10;;
19830;SDS011;10076;52.008;4.708;2023-10-09T00:59:43;31.33;;;28.67;;
19830;SDS011;10076;52.008;4.708;2023-10-09T01:02:11;33.40;;;30.10;;
19830;SDS011;10076;52.008;4.708;2023-10-09T01:04:37;33.22;;;30.42;;
19830;SDS011;10076;52.008;4.708;2023-10-09T01:07:05;32.53;;;29.63;;
19830;SDS011;10076;52.008;4.708;2023-10-09T01:09:40;34.95;;;31.98;;
19830;SDS011;10076;52.008;4.708;2023-10-09T01:12:09;33.88;;;30.98;;
19830;SDS011;10076;52.008;4.708;2023-10-09T01:14:46;34.15;;;31.25;;
19830;SDS011;10076;52.008;4.708;2023-10-09T01:17:17;34.25;;;30.98;;
19830;SDS011;10076;52.008;4.708;2023-10-09T01:19:54;36.38;;;33.08;;
19830;SDS011;10076;52.008;4.708;2023-10-09T01:22:21;35.90;;;32.72;;
19830;SDS011;10076;52.008;4.708;2023-10-09T01:24:47;33.00;;;29.88;;
19830;SDS011;10076;52.008;4.708;2023-10-09T01:27:15;34.05;;;31.17;;
19830;SDS011;10076;52.008;4.708;2023-10-09T01:29:40;35.28;;;32.03;;
19830;SDS011;10076;52.008;4.708;2023-10-09T01:32:11;33.70;;;30.67;;
19830;SDS011;10076;52.008;4.708;2023-10-09T01:34:44;33.55;;;30.65;;
19830;SDS011;10076;52.008;4.708;2023-10-09T01:37:14;35.13;;;31.98;;
19830;SDS011;10076;52.008;4.708;2023-10-09T01:39:45;34.13;;;31.00;;
19830;SDS011;10076;52.008;4.708;2023-10-09T01:42:13;33.08;;;30.08;;
19830;SDS011;10076;52.008;4.708;2023-10-09T01:44:48;32.35;;;29.35;;
19830;SDS011;10076;52.008;4.708;2023-10-09T01:47:13;34.28;;;31.38;;
19830;SDS011;10076;52.008;4.708;2023-10-09T01:49:39;33.90;;;31.00;;
19830;SDS011;10076;52.008;4.708;2023-10-09T01:52:08;35.33;;;32.17;;
19830;SDS011;10076;52.008;4.708;2023-10-09T01:54:41;33.22;;;30.42;;
19830;SDS011;10076;52.008;4.708;2023-10-09T01:57:12;34.85;;;31.92;;
19830;SDS011;10076;52.008;4.708;2023-10-09T01:59:38;34.80;;;31.70;;
19830;SDS011;10076;52.008;4.708;2023-10-09T02:02:09;35.03;;;32.03;;
19830;SDS011;10076;52.008;4.708;2023-10-09T02:04:40;35.55;;;32.55;;
19830;SDS011;10076;52.008;4.708;2023-10-09T02:07:06;35.50;;;32.25;;
19830;SDS011;10076;52.008;4.708;2023-10-09T02:09:33;37.10;;;34.08;;
19830;SDS011;10076;52.008;4.708;2023-10-09T02:11:59;36.30;;;33.30;;
19830;SDS011;10076;52.008;4.708;2023-10-09T02:14:25;36.53;;;33.42;;
19830;SDS011;10076;52.008;4.708;2023-10-09T02:16:51;36.25;;;33.33;;
19830;SDS011;10076;52.008;4.708;2023-10-09T02:19:36;36.55;;;33.45;;
19830;SDS011;10076;52.008;4.708;2023-10-09T02:22:03;39.33;;;36.22;;
19830;SDS011;10076;52.008;4.708;2023-10-09T02:24:40;36.53;;;33.58;;
19830;SDS011;10076;52.008;4.708;2023-10-09T02:27:15;39.20;;;36.15;;
19830;SDS011;10076;52.008;4.708;2023-10-09T02:30:02;36.75;;;33.60;;
19830;SDS011;10076;52.008;4.708;2023-10-09T02:32:36;36.72;;;33.72;;
19830;SDS011;10076;52.008;4.708;2023-10-09T02:35:02;37.53;;;34.30;;
19830;SDS011;10076;52.008;4.708;2023-10-09T02:37:43;36.58;;;33.67;;
19830;SDS011;10076;52.008;4.708;2023-10-09T02:40:12;37.78;;;34.47;;
19830;SDS011;10076;52.008;4.708;2023-10-09T02:42:48;38.28;;;35.08;;
19830;SDS011;10076;52.008;4.708;2023-10-09T02:45:14;36.72;;;33.70;;
19830;SDS011;10076;52.008;4.708;2023-10-09T02:47:41;37.90;;;34.80;;
19830;SDS011;10076;52.008;4.708;2023-10-09T02:50:08;36.22;;;33.30;;
19830;SDS011;10076;52.008;4.708;2023-10-09T02:52:44;36.97;;;33.88;;
19830;SDS011;10076;52.008;4.708;2023-10-09T02:55:12;36.40;;;33.30;;
19830;SDS011;10076;52.008;4.708;2023-10-09T02:57:49;37.45;;;34.35;;
19830;SDS011;10076;52.008;4.708;2023-10-09T03:00:21;37.25;;;33.85;;
19830;SDS011;10076;52.008;4.708;2023-10-09T03:02:54;38.60;;;35.55;;
19830;SDS011;10076;52.008;4.708;2023-10-09T03:05:23;36.92;;;34.03;;
19830;SDS011;10076;52.008;4.708;2023-10-09T03:07:52;37.63;;;34.60;;
19830;SDS011;10076;52.008;4.708;2023-10-09T03:10:18;36.90;;;33.75;;
19830;SDS011;10076;52.008;4.708;2023-10-09T03:12:44;37.05;;;34.15;;
19830;SDS011;10076;52.008;4.708;2023-10-09T03:15:09;36.83;;;33.63;;
19830;SDS011;10076;52.008;4.708;2023-10-09T03:17:36;37.22;;;34.17;;
19830;SDS011;10076;52.008;4.708;2023-10-09T03:20:05;38.92;;;35.40;;
19830;SDS011;10076;52.008;4.708;2023-10-09T03:22:40;36.60;;;33.55;;
19830;SDS011;10076;52.008;4.708;2023-10-09T03:25:07;35.83;;;32.90;;
19830;SDS011;10076;52.008;4.708;2023-10-09T03:27:39;34.47;;;31.38;;
19830;SDS011;10076;52.008;4.708;2023-10-09T03:30:10;34.72;;;31.73;;
19830;SDS011;10076;52.008;4.708;2023-10-09T03:32:41;36.17;;;32.65;;
19830;SDS011;10076;52.008;4.708;2023-10-09T03:35:07;34.97;;;32.00;;
19830;SDS011;10076;52.008;4.708;2023-10-09T03:37:34;34.85;;;31.85;;
19830;SDS011;10076;52.008;4.708;2023-10-09T03:40:00;33.33;;;30.40;;
19830;SDS011;10076;52.008;4.708;2023-10-09T03:42:27;33.55;;;30.55;;
19830;SDS011;10076;52.008;4.708;2023-10-09T03:44:52;34.58;;;31.50;;
19830;SDS011;10076;52.008;4.708;2023-10-09T03:47:18;35.80;;;32.67;;
19830;SDS011;10076;52.008;4.708;2023-10-09T03:49:47;34.58;;;31.55;;
19830;SDS011;10076;52.008;4.708;2023-10-09T03:52:16;34.60;;;31.48;;
19830;SDS011;10076;52.008;4.708;2023-10-09T03:54:42;34.25;;;31.27;;
19830;SDS011;10076;52.008;4.708;2023-10-09T03:57:11;34.08;;;31.05;;
19830;SDS011;10076;52.008;4.708;2023-10-09T03:59:39;33.50;;;30.20;;
19830;SDS011;10076;52.008;4.708;2023-10-09T04:02:05;33.30;;;30.23;;
19830;SDS011;10076;52.008;4.708;2023-10-09T04:04:30;31.17;;;28.23;;
19830;SDS011;10076;52.008;4.708;2023-10-09T04:06:58;31.85;;;28.95;;
19830;SDS011;10076;52.008;4.708;2023-10-09T04:09:23;35.70;;;29.85;;
19830;SDS011;10076;52.008;4.708;2023-10-09T04:14:37;29.70;;;26.85;;
19830;SDS011;10076;52.008;4.708;2023-10-09T04:17:12;31.17;;;28.17;;
19830;SDS011;10076;52.008;4.708;2023-10-09T04:19:49;32.10;;;29.17;;
19830;SDS011;10076;52.008;4.708;2023-10-09T04:22:35;31.90;;;29.10;;
19830;SDS011;10076;52.008;4.708;2023-10-09T04:25:07;32.67;;;29.48;;
19830;SDS011;10076;52.008;4.708;2023-10-09T04:27:40;31.17;;;28.45;;
19830;SDS011;10076;52.008;4.708;2023-10-09T04:30:06;32.05;;;29.02;;
19830;SDS011;10076;52.008;4.708;2023-10-09T04:32:32;32.85;;;29.98;;
19830;SDS011;10076;52.008;4.708;2023-10-09T04:34:59;32.13;;;29.33;;
19830;SDS011;10076;52.008;4.708;2023-10-09T04:37:43;31.35;;;28.45;;
19830;SDS011;10076;52.008;4.708;2023-10-09T04:40:13;32.95;;;30.05;;
19830;SDS011;10076;52.008;4.708;2023-10-09T04:42:58;33.08;;;29.85;;
19830;SDS011;10076;52.008;4.708;2023-10-09T04:45:24;32.20;;;29.30;;
19830;SDS011;10076;52.008;4.708;2023-10-09T04:48:08;33.40;;;30.50;;
19830;SDS011;10076;52.008;4.708;2023-10-09T04:50:34;31.42;;;28.73;;
19830;SDS011;10076;52.008;4.708;2023-10-09T04:52:59;31.55;;;28.75;;
19830;SDS011;10076;52.008;4.708;2023-10-09T04:55:42;33.13;;;30.20;;
19830;SDS011;10076;52.008;4.708;2023-10-09T04:58:24;32.35;;;29.42;;
19830;SDS011;10076;52.008;4.708;2023-10-09T05:00:53;32.33;;;29.40;;
19830;SDS011;10076;52.008;4.708;2023-10-09T05:03:24;32.75;;;29.83;;
19830;SDS011;10076;52.008;4.708;2023-10-09T05:05:53;31.20;;;28.27;;
19830;SDS011;10076;52.008;4.708;2023-10-09T05:08:45;31.58;;;28.85;;
19830;SDS011;10076;52.008;4.708;2023-10-09T05:11:11;32.42;;;29.83;;
19830;SDS011;10076;52.008;4.708;2023-10-09T05:13:54;33.22;;;30.33;;
19830;SDS011;10076;52.008;4.708;2023-10-09T05:16:36;34.20;;;31.13;;
19830;SDS011;10076;52.008;4.708;2023-10-09T05:19:02;32.50;;;29.85;;
19830;SDS011;10076;52.008;4.708;2023-10-09T05:21:32;33.35;;;30.52;;
19830;SDS011;10076;52.008;4.708;2023-10-09T05:24:10;33.22;;;29.85;;
19830;SDS011;10076;52.008;4.708;2023-10-09T05:26:40;32.65;;;29.95;;
19830;SDS011;10076;52.008;4.708;2023-10-09T05:29:11;35.38;;;32.58;;
19830;SDS011;10076;52.008;4.708;2023-10-09T05:31:55;35.95;;;32.63;;
19830;SDS011;10076;52.008;4.708;2023-10-09T05:34:39;34.60;;;31.60;;
19830;SDS011;10076;52.008;4.708;2023-10-09T05:37:23;34.38;;;30.27;;
19830;SDS011;10076;52.008;4.708;2023-10-09T05:40:04;33.55;;;30.35;;
19830;SDS011;10076;52.008;4.708;2023-10-09T05:42:42;36.63;;;32.95;;
19830;SDS011;10076;52.008;4.708;2023-10-09T05:45:10;35.60;;;32.67;;
19830;SDS011;10076;52.008;4.708;2023-10-09T05:47:49;36.00;;;33.00;;
19830;SDS011;10076;52.008;4.708;2023-10-09T05:50:25;34.50;;;31.58;;
19830;SDS011;10076;52.008;4.708;2023-10-09T05:52:52;32.83;;;29.85;;
19830;SDS011;10076;52.008;4.708;2023-10-09T05:55:29;33.50;;;30.60;;
19830;SDS011;10076;52.008;4.708;2023-10-09T05:58:14;33.65;;;30.85;;
19830;SDS011;10076;52.008;4.708;2023-10-09T06:00:58;36.17;;;33.08;;
19830;SDS011;10076;52.008;4.708;2023-10-09T06:03:41;37.28;;;33.80;;
19830;SDS011;10076;52.008;4.708;2023-10-09T06:06:19;34.75;;;31.92;;
19830;SDS011;10076;52.008;4.708;2023-10-09T06:09:01;36.75;;;33.65;;
19830;SDS011;10076;52.008;4.708;2023-10-09T06:11:50;39.05;;;35.88;;
19830;SDS011;10076;52.008;4.708;2023-10-09T06:14:18;38.05;;;34.78;;
19830;SDS011;10076;52.008;4.708;2023-10-09T06:17:11;37.83;;;34.65;;
19830;SDS011;10076;52.008;4.708;2023-10-09T06:19:36;35.65;;;32.72;;
19830;SDS011;10076;52.008;4.708;2023-10-09T06:22:08;35.47;;;32.42;;
19830;SDS011;10076;52.008;4.708;2023-10-09T06:24:37;34.10;;;31.10;;
19830;SDS011;10076;52.008;4.708;2023-10-09T06:27:07;34.40;;;31.30;;
19830;SDS011;10076;52.008;4.708;2023-10-09T06:29:36;32.53;;;29.42;;
19830;SDS011;10076;52.008;4.708;2023-10-09T06:32:02;35.35;;;32.25;;
19830;SDS011;10076;52.008;4.708;2023-10-09T06:34:46;35.30;;;32.15;;
19830;SDS011;10076;52.008;4.708;2023-10-09T06:37:22;35.67;;;32.47;;
19830;SDS011;10076;52.008;4.708;2023-10-09T06:39:48;34.50;;;31.48;;
19830;SDS011;10076;52.008;4.708;2023-10-09T06:42:23;34.50;;;31.67;;
19830;SDS011;10076;52.008;4.708;2023-10-09T06:45:02;36.00;;;32.97;;
19830;SDS011;10076;52.008;4.708;2023-10-09T06:47:39;36.17;;;33.15;;
19830;SDS011;10076;52.008;4.708;2023-10-09T06:50:42;34.30;;;31.42;;
19830;SDS011;10076;52.008;4.708;2023-10-09T06:53:32;33.92;;;31.20;;
19830;SDS011;10076;52.008;4.708;2023-10-09T06:56:16;34.60;;;31.80;;
19830;SDS011;10076;52.008;4.708;2023-10-09T06:58:57;34.00;;;31.02;;
19830;SDS011;10076;52.008;4.708;2023-10-09T07:01:24;33.33;;;30.55;;
19830;SDS011;10076;52.008;4.708;2023-10-09T07:03:52;34.63;;;31.58;;
19830;SDS011;10076;52.008;4.708;2023-10-09T07:06:43;33.65;;;30.85;;
19830;SDS011;10076;52.008;4.708;2023-10-09T07:09:09;34.60;;;31.52;;
19830;SDS011;10076;52.008;4.708;2023-10-09T07:11:34;34.90;;;32.00;;
19830;SDS011;10076;52.008;4.708;2023-10-09T07:14:13;34.28;;;30.98;;
19830;SDS011;10076;52.008;4.708;2023-10-09T07:16:59;35.45;;;32.47;;
19830;SDS011;10076;52.008;4.708;2023-10-09T07:19:41;33.10;;;30.25;;
19830;SDS011;10076;52.008;4.708;2023-10-09T07:22:13;35.03;;;32.03;;
19830;SDS011;10076;52.008;4.708;2023-10-09T07:24:45;34.35;;;31.55;;
19830;SDS011;10076;52.008;4.708;2023-10-09T07:27:38;34.95;;;32.17;;
19830;SDS011;10076;52.008;4.708;2023-10-09T07:30:11;37.38;;;34.15;;
19830;SDS011;10076;52.008;4.708;2023-10-09T07:35:37;33.65;;;30.67;;
19830;SDS011;10076;52.008;4.708;2023-10-09T07:38:12;33.95;;;31.25;;
19830;SDS011;10076;52.008;4.708;2023-10-09T07:40:46;34.35;;;31.40;;
19830;SDS011;10076;52.008;4.708;2023-10-09T07:43:21;37.45;;;34.22;;
19830;SDS011;10076;52.008;4.708;2023-10-09T07:46:10;34.47;;;31.77;;
19830;SDS011;10076;52.008;4.708;2023-10-09T07:48:54;35.08;;;32.28;;
19830;SDS011;10076;52.008;4.708;2023-10-09T07:51:21;36.85;;;34.05;;
19830;SDS011;10076;52.008;4.708;2023-10-09T07:53:57;34.38;;;31.65;;
19830;SDS011;10076;52.008;4.708;2023-10-09T07:56:39;37.05;;;33.90;;
19830;SDS011;10076;52.008;4.708;2023-10-09T07:59:14;34.42;;;31.40;;
19830;SDS011;10076;52.008;4.708;2023-10-09T08:01:46;31.88;;;29.27;;
19830;SDS011;10076;52.008;4.708;2023-10-09T08:04:23;36.20;;;33.22;;
19830;SDS011;10076;52.008;4.708;2023-10-09T08:07:08;34.55;;;31.33;;
19830;SDS011;10076;52.008;4.708;2023-10-09T08:09:37;35.40;;;32.60;;
19830;SDS011;10076;52.008;4.708;2023-10-09T08:12:12;33.95;;;31.20;;
19830;SDS011;10076;52.008;4.708;2023-10-09T08:14:57;33.13;;;30.55;;
19830;SDS011;10076;52.008;4.708;2023-10-09T08:17:44;34.53;;;31.58;;
19830;SDS011;10076;52.008;4.708;2023-10-09T08:20:16;34.10;;;31.25;;
19830;SDS011;10076;52.008;4.708;2023-10-09T08:22:42;36.05;;;32.90;;
19830;SDS011;10076;52.008;4.708;2023-10-09T08:25:08;33.53;;;31.00;;
19830;SDS011;10076;52.008;4.708;2023-10-09T08:27:55;34.10;;;31.52;;
19830;SDS011;10076;52.008;4.708;2023-10-09T08:30:22;33.08;;;30.08;;
19830;SDS011;10076;52.008;4.708;2023-10-09T08:32:49;34.53;;;31.85;;
19830;SDS011;10076;52.008;4.708;2023-10-09T08:38:01;35.10;;;32.28;;
19830;SDS011;10076;52.008;4.708;2023-10-09T08:40:33;33.83;;;30.83;;
19830;SDS011;10076;52.008;4.708;2023-10-09T08:43:24;32.03;;;29.52;;
19830;SDS011;10076;52.008;4.708;2023-10-09T08:45:51;32.53;;;29.92;;
19830;SDS011;10076;52.008;4.708;2023-10-09T08:48:19;32.45;;;29.83;;
19830;SDS011;10076;52.008;4.708;2023-10-09T08:50:47;31.85;;;29.25;;
19830;SDS011;10076;52.008;4.708;2023-10-09T08:53:15;35.70;;;32.55;;
19830;SDS011;10076;52.008;4.708;2023-10-09T08:55:41;33.67;;;31.17;;
19830;SDS011;10076;52.008;4.708;2023-10-09T08:58:08;34.70;;;31.85;;
19830;SDS011;10076;52.008;4.708;2023-10-09T09:00:50;33.35;;;30.65;;
19830;SDS011;10076;52.008;4.708;2023-10-09T09:03:17;35.60;;;32.92;;
19830;SDS011;10076;52.008;4.708;2023-10-09T09:05:45;33.72;;;30.88;;
19830;SDS011;10076;52.008;4.708;2023-10-09T09:08:25;33.30;;;30.30;;
19830;SDS011;10076;52.008;4.708;2023-10-09T09:11:00;35.28;;;32.38;;
19830;SDS011;10076;52.008;4.708;2023-10-09T09:16:24;35.10;;;32.42;;
19830;SDS011;10076;52.008;4.708;2023-10-09T09:18:59;32.80;;;30.25;;
19830;SDS011;10076;52.008;4.708;2023-10-09T09:21:56;33.97;;;31.48;;
19830;SDS011;10076;52.008;4.708;2023-10-09T09:24:36;32.42;;;29.73;;
19830;SDS011;10076;52.008;4.708;2023-10-09T09:27:02;29.70;;;27.60;;
19830;SDS011;10076;52.008;4.708;2023-10-09T09:32:03;29.52;;;27.38;;
19830;SDS011;10076;52.008;4.708;2023-10-09T09:34:45;30.50;;;28.20;;
19830;SDS011;10076;52.008;4.708;2023-10-09T09:37:26;28.63;;;26.58;;
19830;SDS011;10076;52.008;4.708;2023-10-09T09:40:15;29.40;;;27.30;;
19830;SDS011;10076;52.008;4.708;2023-10-09T09:42:54;28.88;;;26.83;;
19830;SDS011;10076;52.008;4.708;2023-10-09T09:45:35;29.92;;;27.58;;
19830;SDS011;10076;52.008;4.708;2023-10-09T09:48:04;29.35;;;27.27;;
19830;SDS011;10076;52.008;4.708;2023-10-09T09:50:31;29.63;;;27.35;;
19830;SDS011;10076;52.008;4.708;2023-10-09T09:52:58;30.52;;;28.27;;
19830;SDS011;10076;52.008;4.708;2023-10-09T09:55:24;28.77;;;26.77;;
19830;SDS011;10076;52.008;4.708;2023-10-09T09:57:58;28.33;;;26.23;;
19830;SDS011;10076;52.008;4.708;2023-10-09T10:00:25;29.05;;;26.95;;
19830;SDS011;10076;52.008;4.708;2023-10-09T10:03:11;29.33;;;27.33;;
19830;SDS011;10076;52.008;4.708;2023-10-09T10:05:39;28.92;;;26.85;;
19830;SDS011;10076;52.008;4.708;2023-10-09T10:08:07;28.17;;;26.38;;
19830;SDS011;10076;52.008;4.708;2023-10-09T10:10:39;28.25;;;26.35;;
19830;SDS011;10076;52.008;4.708;2023-10-09T10:13:17;28.50;;;26.50;;
19830;SDS011;10076;52.008;4.708;2023-10-09T10:16:09;28.75;;;26.77;;
19830;SDS011;10076;52.008;4.708;2023-10-09T10:19:00;27.70;;;25.88;;
19830;SDS011;10076;52.008;4.708;2023-10-09T10:21:36;27.35;;;25.55;;
19830;SDS011;10076;52.008;4.708;2023-10-09T10:35:16;25.75;;;23.95;;
19830;SDS011;10076;52.008;4.708;2023-10-09T10:37:41;26.45;;;24.58;;
19830;SDS011;10076;52.008;4.708;2023-10-09T10:40:25;27.23;;;25.45;;
19830;SDS011;10076;52.008;4.708;2023-10-09T10:43:07;27.77;;;25.70;;
19830;SDS011;10076;52.008;4.708;2023-10-09T10:48:49;26.40;;;24.70;;
19830;SDS011;10076;52.008;4.708;2023-10-09T10:51:23;26.23;;;24.60;;
19830;SDS011;10076;52.008;4.708;2023-10-09T10:53:59;27.65;;;25.75;;
19830;SDS011;10076;52.008;4.708;2023-10-09T10:56:46;26.02;;;24.23;;
19830;SDS011;10076;52.008;4.708;2023-10-09T10:59:14;26.73;;;25.02;;
19830;SDS011;10076;52.008;4.708;2023-10-09T11:01:47;26.45;;;24.58;;
19830;SDS011;10076;52.008;4.708;2023-10-09T11:04:28;27.48;;;25.58;;
19830;SDS011;10076;52.008;4.708;2023-10-09T11:06:57;27.38;;;25.35;;
19830;SDS011;10076;52.008;4.708;2023-10-09T11:12:31;26.50;;;24.63;;
19830;SDS011;10076;52.008;4.708;2023-10-09T11:15:35;27.17;;;25.17;;
19830;SDS011;10076;52.008;4.708;2023-10-09T11:18:12;27.13;;;25.23;;
19830;SDS011;10076;52.008;4.708;2023-10-09T11:20:58;27.00;;;24.85;;
19830;SDS011;10076;52.008;4.708;2023-10-09T11:23:32;27.77;;;25.65;;
19830;SDS011;10076;52.008;4.708;2023-10-09T11:26:04;26.52;;;24.63;;
19830;SDS011;10076;52.008;4.708;2023-10-09T11:29:09;26.75;;;24.95;;
19830;SDS011;10076;52.008;4.708;2023-10-09T11:34:24;23.98;;;22.17;;
19830;SDS011;10076;52.008;4.708;2023-10-09T11:37:13;24.55;;;22.83;;
19830;SDS011;10076;52.008;4.708;2023-10-09T11:39:58;24.90;;;23.40;;
19830;SDS011;10076;52.008;4.708;2023-10-09T11:42:26;23.85;;;22.05;;
19830;SDS011;10076;52.008;4.708;2023-10-09T11:45:06;23.08;;;21.67;;
19830;SDS011;10076;52.008;4.708;2023-10-09T11:47:57;22.08;;;20.75;;
19830;SDS011;10076;52.008;4.708;2023-10-09T11:50:38;23.70;;;22.13;;
19830;SDS011;10076;52.008;4.708;2023-10-09T11:53:08;22.63;;;21.23;;
19830;SDS011;10076;52.008;4.708;2023-10-09T11:55:44;24.10;;;22.50;;
19830;SDS011;10076;52.008;4.708;2023-10-09T11:58:13;25.05;;;23.35;;
19830;SDS011;10076;52.008;4.708;2023-10-09T12:00:49;25.88;;;23.98;;
19830;SDS011;10076;52.008;4.708;2023-10-09T12:03:22;25.60;;;24.00;;
19830;SDS011;10076;52.008;4.708;2023-10-09T12:05:53;26.50;;;24.80;;
19830;SDS011;10076;52.008;4.708;2023-10-09T12:08:21;26.58;;;24.90;;
19830;SDS011;10076;52.008;4.708;2023-10-09T12:10:47;26.98;;;25.08;;
19830;SDS011;10076;52.008;4.708;2023-10-09T12:13:13;28.25;;;26.15;;
19830;SDS011;10076;52.008;4.708;2023-10-09T12:15:40;26.92;;;25.15;;
19830;SDS011;10076;52.008;4.708;2023-10-09T12:18:06;26.90;;;25.10;;
19830;SDS011;10076;52.008;4.708;2023-10-09T12:20:34;26.73;;;24.73;;
19830;SDS011;10076;52.008;4.708;2023-10-09T12:23:00;25.30;;;23.63;;
19830;SDS011;10076;52.008;4.708;2023-10-09T12:25:31;25.35;;;23.52;;
19830;SDS011;10076;52.008;4.708;2023-10-09T12:27:58;24.65;;;22.17;;
19830;SDS011;10076;52.008;4.708;2023-10-09T12:30:30;24.50;;;22.90;;
19830;SDS011;10076;52.008;4.708;2023-10-09T12:32:56;24.20;;;22.52;;
19830;SDS011;10076;52.008;4.708;2023-10-09T12:35:26;23.77;;;22.02;;
19830;SDS011;10076;52.008;4.708;2023-10-09T12:37:53;22.58;;;21.00;;
19830;SDS011;10076;52.008;4.708;2023-10-09T12:40:21;22.52;;;21.05;;
19830;SDS011;10076;52.008;4.708;2023-10-09T12:42:50;22.80;;;21.40;;
19830;SDS011;10076;52.008;4.708;2023-10-09T12:45:17;24.00;;;21.90;;
19830;SDS011;10076;52.008;4.708;2023-10-09T12:47:45;23.33;;;21.92;;
19830;SDS011;10076;52.008;4.708;2023-10-09T12:50:12;25.13;;;23.52;;
19830;SDS011;10076;52.008;4.708;2023-10-09T12:52:39;24.85;;;23.23;;
19830;SDS011;10076;52.008;4.708;2023-10-09T12:55:05;24.38;;;22.77;;
19830;SDS011;10076;52.008;4.708;2023-10-09T12:57:33;26.75;;;24.85;;
19830;SDS011;10076;52.008;4.708;2023-10-09T12:59:58;24.98;;;23.38;;
19830;SDS011;10076;52.008;4.708;2023-10-09T13:02:24;26.95;;;24.95;;
19830;SDS011;10076;52.008;4.708;2023-10-09T13:04:56;25.73;;;23.98;;
19830;SDS011;10076;52.008;4.708;2023-10-09T13:07:22;26.35;;;24.65;;
19830;SDS011;10076;52.008;4.708;2023-10-09T13:09:48;28.40;;;26.40;;
19830;SDS011;10076;52.008;4.708;2023-10-09T13:12:32;27.10;;;25.30;;
19830;SDS011;10076;52.008;4.708;2023-10-09T13:14:57;27.55;;;25.48;;
19830;SDS011;10076;52.008;4.708;2023-10-09T13:17:23;26.95;;;25.08;;
19830;SDS011;10076;52.008;4.708;2023-10-09T13:19:52;27.17;;;24.90;;
19830;SDS011;10076;52.008;4.708;2023-10-09T13:22:17;26.00;;;24.40;;
19830;SDS011;10076;52.008;4.708;2023-10-09T13:24:43;26.00;;;24.27;;
19830;SDS011;10076;52.008;4.708;2023-10-09T13:27:08;27.10;;;25.20;;
19830;SDS011;10076;52.008;4.708;2023-10-09T13:29:35;27.33;;;25.25;;
19830;SDS011;10076;52.008;4.708;2023-10-09T13:32:04;26.00;;;24.30;;
19830;SDS011;10076;52.008;4.708;2023-10-09T13:34:38;27.35;;;25.48;;
19830;SDS011;10076;52.008;4.708;2023-10-09T13:37:09;28.10;;;26.00;;
19830;SDS011;10076;52.008;4.708;2023-10-09T13:39:39;27.85;;;25.85;;
19830;SDS011;10076;52.008;4.708;2023-10-09T13:42:21;28.15;;;26.38;;
19830;SDS011;10076;52.008;4.708;2023-10-09T13:44:49;28.77;;;26.63;;
19830;SDS011;10076;52.008;4.708;2023-10-09T13:47:18;28.00;;;25.98;;
19830;SDS011;10076;52.008;4.708;2023-10-09T13:49:45;28.80;;;26.77;;
19830;SDS011;10076;52.008;4.708;2023-10-09T13:52:15;29.15;;;26.88;;
19830;SDS011;10076;52.008;4.708;2023-10-09T13:54:43;28.60;;;26.77;;
19830;SDS011;10076;52.008;4.708;2023-10-09T13:57:13;28.88;;;27.08;;
19830;SDS011;10076;52.008;4.708;2023-10-09T13:59:40;28.75;;;26.88;;
19830;SDS011;10076;52.008;4.708;2023-10-09T14:02:14;27.60;;;25.90;;
19830;SDS011;10076;52.008;4.708;2023-10-09T14:04:44;27.00;;;25.17;;
19830;SDS011;10076;52.008;4.708;2023-10-09T14:07:11;28.27;;;26.17;;
19830;SDS011;10076;52.008;4.708;2023-10-09T14:09:39;27.80;;;26.10;;
19830;SDS011;10076;52.008;4.708;2023-10-09T14:12:10;28.88;;;26.95;;
19830;SDS011;10076;52.008;4.708;2023-10-09T14:14:37;28.60;;;26.65;;
19830;SDS011;10076;52.008;4.708;2023-10-09T14:17:15;28.33;;;26.50;;
19830;SDS011;10076;52.008;4.708;2023-10-09T14:19:48;29.77;;;27.77;;
19830;SDS011;10076;52.008;4.708;2023-10-09T14:22:16;29.52;;;27.20;;
19830;SDS011;10076;52.008;4.708;2023-10-09T14:24:43;29.02;;;26.85;;
19830;SDS011;10076;52.008;4.708;2023-10-09T14:27:13;29.58;;;27.58;;
19830;SDS011;10076;52.008;4.708;2023-10-09T14:29:45;28.75;;;26.95;;
19830;SDS011;10076;52.008;4.708;2023-10-09T14:32:14;29.42;;;27.42;;
19830;SDS011;10076;52.008;4.708;2023-10-09T14:34:40;31.23;;;28.83;;
19830;SDS011;10076;52.008;4.708;2023-10-09T14:37:14;29.10;;;27.15;;
19830;SDS011;10076;52.008;4.708;2023-10-09T14:39:44;31.33;;;29.23;;
19830;SDS011;10076;52.008;4.708;2023-10-09T14:42:13;30.52;;;28.40;;
19830;SDS011;10076;52.008;4.708;2023-10-09T14:44:40;32.65;;;30.38;;
19830;SDS011;10076;52.008;4.708;2023-10-09T14:47:06;30.45;;;28.23;;
19830;SDS011;10076;52.008;4.708;2023-10-09T14:49:35;32.17;;;29.90;;
19830;SDS011;10076;52.008;4.708;2023-10-09T14:52:05;31.83;;;29.58;;
19830;SDS011;10076;52.008;4.708;2023-10-09T14:54:33;32.92;;;30.30;;
19830;SDS011;10076;52.008;4.708;2023-10-09T14:57:03;32.15;;;29.95;;
19830;SDS011;10076;52.008;4.708;2023-10-09T14:59:31;31.83;;;29.25;;
19830;SDS011;10076;52.008;4.708;2023-10-09T15:01:57;32.75;;;30.48;;
19830;SDS011;10076;52.008;4.708;2023-10-09T15:04:24;33.92;;;31.20;;
19830;SDS011;10076;52.008;4.708;2023-10-09T15:06:51;33.75;;;31.25;;
19830;SDS011;10076;52.008;4.708;2023-10-09T15:09:18;33.90;;;31.33;;
19830;SDS011;10076;52.008;4.708;2023-10-09T15:11:47;34.58;;;31.83;;
19830;SDS011;10076;52.008;4.708;2023-10-09T15:14:17;34.85;;;31.73;;
19830;SDS011;10076;52.008;4.708;2023-10-09T15:16:45;34.65;;;32.05;;
19830;SDS011;10076;52.008;4.708;2023-10-09T15:19:11;34.33;;;31.73;;
19830;SDS011;10076;52.008;4.708;2023-10-09T15:21:38;33.42;;;30.85;;
19830;SDS011;10076;52.008;4.708;2023-10-09T15:24:09;31.95;;;29.67;;
19830;SDS011;10076;52.008;4.708;2023-10-09T15:26:46;32.75;;;30.40;;